PRMSH SBMS-SBJU
Flight info
| Callsign | PRMSH |
|---|---|
| Flight time | 0h 59m |
| Altitude | 6000 |
| Route | KIGUK DCT KILES |
| Aircraft | E110/L-SDG/C |
Departure
| Time | 2026-04-23 19:50 |
|---|---|
| Airport | Dix-Sept Rosado Airport (SBMS) |
Arrival
| Time | 2026-04-23 20:50 |
|---|---|
| Airport | Orlando Bezerra de Menezes Airport (SBJU) |
| Time | Latitude | Longitude | Altitude | Speed | Heading |
|---|---|---|---|---|---|
| 2026-04-23 19:31 | -5.19525 | -37.36344 | 89 ft | 0 kts | 295° |
| 2026-04-23 19:37 | -5.19525 | -37.36345 | 90 ft | 0 kts | 295° |
| 2026-04-23 19:37 | -5.19529 | -37.36335 | 88 ft | 2 kts | 295° |
| 2026-04-23 19:38 | -5.19536 | -37.36322 | 88 ft | 2 kts | 295° |
| 2026-04-23 19:38 | -5.19542 | -37.36309 | 87 ft | 1 kts | 297° |
| 2026-04-23 19:38 | -5.19547 | -37.36302 | 87 ft | 1 kts | 307° |
| 2026-04-23 19:38 | -5.19553 | -37.36295 | 87 ft | 1 kts | 316° |
| 2026-04-23 19:39 | -5.19560 | -37.36290 | 87 ft | 0 kts | 341° |
| 2026-04-23 19:39 | -5.19563 | -37.36292 | 87 ft | 0 kts | 113° |
| 2026-04-23 19:39 | -5.19559 | -37.36293 | 87 ft | 0 kts | 190° |
| 2026-04-23 19:42 | -5.19560 | -37.36294 | 87 ft | 0 kts | 190° |
| 2026-04-23 19:42 | -5.19566 | -37.36297 | 87 ft | 1 kts | 225° |
| 2026-04-23 19:42 | -5.19560 | -37.36318 | 87 ft | 3 kts | 360° |
| 2026-04-23 19:43 | -5.19549 | -37.36314 | 87 ft | 0 kts | 30° |
| 2026-04-23 19:43 | -5.19542 | -37.36311 | 87 ft | 1 kts | 31° |
| 2026-04-23 19:43 | -5.19538 | -37.36308 | 87 ft | 0 kts | 31° |
| 2026-04-23 19:45 | -5.19534 | -37.36306 | 87 ft | 1 kts | 31° |
| 2026-04-23 19:45 | -5.19509 | -37.36290 | 87 ft | 7 kts | 31° |
| 2026-04-23 19:45 | -5.19467 | -37.36265 | 87 ft | 7 kts | 39° |
| 2026-04-23 19:46 | -5.19481 | -37.36205 | 87 ft | 12 kts | 120° |
| 2026-04-23 19:46 | -5.19508 | -37.36134 | 87 ft | 8 kts | 104° |
| 2026-04-23 19:46 | -5.19571 | -37.36126 | 87 ft | 15 kts | 207° |
| 2026-04-23 19:46 | -5.19695 | -37.36182 | 86 ft | 22 kts | 203° |
| 2026-04-23 19:47 | -5.19853 | -37.36255 | 84 ft | 26 kts | 205° |
| 2026-04-23 19:47 | -5.20033 | -37.36338 | 83 ft | 29 kts | 204° |
| 2026-04-23 19:47 | -5.20228 | -37.36425 | 83 ft | 31 kts | 205° |
| 2026-04-23 19:47 | -5.20432 | -37.36516 | 82 ft | 32 kts | 204° |
| 2026-04-23 19:48 | -5.20640 | -37.36611 | 82 ft | 29 kts | 206° |
| 2026-04-23 19:48 | -5.20793 | -37.36684 | 81 ft | 20 kts | 205° |
| 2026-04-23 19:48 | -5.20902 | -37.36737 | 80 ft | 17 kts | 207° |
| 2026-04-23 19:48 | -5.20968 | -37.36801 | 80 ft | 7 kts | 221° |
| 2026-04-23 19:49 | -5.20980 | -37.36776 | 80 ft | 11 kts | 30° |
| 2026-04-23 19:49 | -5.20943 | -37.36759 | 80 ft | 14 kts | 22° |
| 2026-04-23 19:49 | -5.20596 | -37.36601 | 82 ft | 86 kts | 26° |
| 2026-04-23 19:49 | -5.19950 | -37.36323 | 177 ft | 103 kts | 21° |
| 2026-04-23 19:50 | -5.19252 | -37.36170 | 436 ft | 102 kts | 358° |
| 2026-04-23 19:50 | -5.18523 | -37.36483 | 504 ft | 129 kts | 326° |
| 2026-04-23 19:50 | -5.18101 | -37.37296 | 689 ft | 142 kts | 275° |
| 2026-04-23 19:50 | -5.18283 | -37.38234 | 931 ft | 143 kts | 238° |
| 2026-04-23 19:51 | -5.19027 | -37.38900 | 1049 ft | 149 kts | 201° |
| 2026-04-23 19:51 | -5.20045 | -37.39019 | 1197 ft | 149 kts | 170° |
| 2026-04-23 19:51 | -5.21102 | -37.38914 | 1367 ft | 153 kts | 168° |
| 2026-04-23 19:51 | -5.22190 | -37.38804 | 1552 ft | 155 kts | 168° |
| 2026-04-23 19:52 | -5.23297 | -37.38696 | 1764 ft | 163 kts | 171° |
| 2026-04-23 19:52 | -5.24446 | -37.38775 | 1978 ft | 170 kts | 186° |
| 2026-04-23 19:52 | -5.25632 | -37.39088 | 2166 ft | 177 kts | 193° |
| 2026-04-23 19:52 | -5.26813 | -37.39521 | 2367 ft | 181 kts | 197° |
| 2026-04-23 19:53 | -5.28001 | -37.40016 | 2542 ft | 184 kts | 199° |
| 2026-04-23 19:53 | -5.29190 | -37.40538 | 2718 ft | 186 kts | 200° |
| 2026-04-23 19:53 | -5.30392 | -37.41077 | 2906 ft | 186 kts | 200° |
| 2026-04-23 19:53 | -5.31573 | -37.41612 | 3092 ft | 186 kts | 200° |
| 2026-04-23 19:54 | -5.32758 | -37.42150 | 3278 ft | 185 kts | 200° |
| 2026-04-23 19:54 | -5.33966 | -37.42699 | 3462 ft | 185 kts | 200° |
| 2026-04-23 19:54 | -5.35152 | -37.43238 | 3643 ft | 185 kts | 200° |
| 2026-04-23 19:54 | -5.36332 | -37.43774 | 3823 ft | 184 kts | 200° |
| 2026-04-23 19:55 | -5.37514 | -37.44313 | 4002 ft | 184 kts | 200° |
| 2026-04-23 19:55 | -5.38692 | -37.44848 | 4180 ft | 183 kts | 200° |
| 2026-04-23 19:55 | -5.39879 | -37.45388 | 4358 ft | 183 kts | 200° |
| 2026-04-23 19:55 | -5.41043 | -37.45918 | 4528 ft | 182 kts | 200° |
| 2026-04-23 19:56 | -5.42208 | -37.46448 | 4693 ft | 182 kts | 200° |
| 2026-04-23 19:56 | -5.43359 | -37.46972 | 4860 ft | 181 kts | 200° |
| 2026-04-23 19:56 | -5.44510 | -37.47495 | 5024 ft | 181 kts | 200° |
| 2026-04-23 19:56 | -5.45664 | -37.48021 | 5188 ft | 181 kts | 200° |
| 2026-04-23 19:57 | -5.46811 | -37.48543 | 5348 ft | 180 kts | 200° |
| 2026-04-23 19:57 | -5.47961 | -37.49066 | 5506 ft | 180 kts | 200° |
| 2026-04-23 19:57 | -5.49111 | -37.49589 | 5659 ft | 179 kts | 200° |
| 2026-04-23 19:57 | -5.50247 | -37.50107 | 5815 ft | 179 kts | 200° |
| 2026-04-23 19:58 | -5.51393 | -37.50628 | 5948 ft | 180 kts | 200° |
| 2026-04-23 19:58 | -5.52574 | -37.51163 | 5925 ft | 190 kts | 200° |
| 2026-04-23 19:58 | -5.53802 | -37.51719 | 5887 ft | 196 kts | 200° |
| 2026-04-23 19:58 | -5.55058 | -37.52291 | 5894 ft | 199 kts | 200° |
| 2026-04-23 19:59 | -5.56332 | -37.52872 | 5895 ft | 200 kts | 200° |
| 2026-04-23 19:59 | -5.57610 | -37.53453 | 5898 ft | 202 kts | 201° |
| 2026-04-23 19:59 | -5.58898 | -37.54040 | 5888 ft | 203 kts | 200° |
| 2026-04-23 19:59 | -5.60205 | -37.54635 | 5885 ft | 203 kts | 201° |
| 2026-04-23 20:00 | -5.61508 | -37.55228 | 5890 ft | 203 kts | 200° |
| 2026-04-23 20:00 | -5.62791 | -37.55812 | 5886 ft | 203 kts | 200° |
| 2026-04-23 20:00 | -5.64088 | -37.56402 | 5889 ft | 203 kts | 200° |
| 2026-04-23 20:00 | -5.65396 | -37.56995 | 5891 ft | 203 kts | 200° |
| 2026-04-23 20:01 | -5.66705 | -37.57589 | 5893 ft | 204 kts | 200° |
| 2026-04-23 20:01 | -5.68000 | -37.58177 | 5888 ft | 204 kts | 200° |
| 2026-04-23 20:01 | -5.69291 | -37.58763 | 5889 ft | 204 kts | 201° |
| 2026-04-23 20:01 | -5.70594 | -37.59356 | 5898 ft | 204 kts | 200° |
| 2026-04-23 20:02 | -5.71911 | -37.59956 | 5893 ft | 204 kts | 200° |
| 2026-04-23 20:02 | -5.73207 | -37.60546 | 5890 ft | 204 kts | 200° |
| 2026-04-23 20:02 | -5.74528 | -37.61146 | 5892 ft | 204 kts | 201° |
| 2026-04-23 20:02 | -5.75825 | -37.61738 | 5893 ft | 204 kts | 201° |
| 2026-04-23 20:03 | -5.77128 | -37.62331 | 5892 ft | 204 kts | 201° |
| 2026-04-23 20:03 | -5.78431 | -37.62925 | 5901 ft | 204 kts | 201° |
| 2026-04-23 20:03 | -5.79707 | -37.63506 | 5895 ft | 205 kts | 201° |
| 2026-04-23 20:03 | -5.81026 | -37.64107 | 5897 ft | 205 kts | 201° |
| 2026-04-23 20:04 | -5.82329 | -37.64702 | 5899 ft | 205 kts | 202° |
| 2026-04-23 20:04 | -5.83482 | -37.65625 | 5892 ft | 209 kts | 224° |
| 2026-04-23 20:04 | -5.84471 | -37.66724 | 5903 ft | 209 kts | 225° |
| 2026-04-23 20:04 | -5.85457 | -37.67828 | 5903 ft | 210 kts | 225° |
| 2026-04-23 20:05 | -5.86430 | -37.68919 | 5896 ft | 210 kts | 225° |
| 2026-04-23 20:05 | -5.87414 | -37.70022 | 5890 ft | 210 kts | 226° |
| 2026-04-23 20:05 | -5.88397 | -37.71127 | 5886 ft | 210 kts | 226° |
| 2026-04-23 20:05 | -5.89377 | -37.72228 | 5892 ft | 209 kts | 226° |
| 2026-04-23 20:06 | -5.90354 | -37.73326 | 5891 ft | 210 kts | 226° |
| 2026-04-23 20:06 | -5.91346 | -37.74440 | 5888 ft | 210 kts | 226° |
| 2026-04-23 20:06 | -5.92323 | -37.75538 | 5882 ft | 210 kts | 226° |
| 2026-04-23 20:06 | -5.93314 | -37.76653 | 5877 ft | 210 kts | 226° |
| 2026-04-23 20:07 | -5.94297 | -37.77758 | 5882 ft | 210 kts | 226° |
| 2026-04-23 20:07 | -5.95275 | -37.78857 | 5886 ft | 210 kts | 225° |
| 2026-04-23 20:07 | -5.96267 | -37.79973 | 5882 ft | 211 kts | 225° |
| 2026-04-23 20:07 | -5.97245 | -37.81072 | 5887 ft | 211 kts | 225° |
| 2026-04-23 20:08 | -5.98234 | -37.82184 | 5888 ft | 211 kts | 226° |
| 2026-04-23 20:08 | -5.99208 | -37.83278 | 5889 ft | 210 kts | 226° |
| 2026-04-23 20:08 | -6.00192 | -37.84385 | 5891 ft | 210 kts | 226° |
| 2026-04-23 20:08 | -6.01168 | -37.85482 | 5893 ft | 210 kts | 226° |
| 2026-04-23 20:09 | -6.02140 | -37.86575 | 5897 ft | 210 kts | 226° |
| 2026-04-23 20:09 | -6.03129 | -37.87687 | 5904 ft | 210 kts | 226° |
| 2026-04-23 20:09 | -6.04072 | -37.88749 | 5911 ft | 210 kts | 226° |
| 2026-04-23 20:09 | -6.05049 | -37.89848 | 5918 ft | 210 kts | 226° |
| 2026-04-23 20:10 | -6.06038 | -37.90960 | 5922 ft | 211 kts | 226° |
| 2026-04-23 20:10 | -6.07020 | -37.92065 | 5925 ft | 211 kts | 226° |
| 2026-04-23 20:10 | -6.08013 | -37.93183 | 5922 ft | 212 kts | 226° |
| 2026-04-23 20:10 | -6.09000 | -37.94292 | 5927 ft | 212 kts | 226° |
| 2026-04-23 20:11 | -6.09979 | -37.95395 | 5927 ft | 212 kts | 226° |
| 2026-04-23 20:11 | -6.10985 | -37.96527 | 5929 ft | 213 kts | 226° |
| 2026-04-23 20:11 | -6.11926 | -37.97586 | 5926 ft | 212 kts | 226° |
| 2026-04-23 20:11 | -6.12885 | -37.98665 | 5922 ft | 212 kts | 226° |
| 2026-04-23 20:12 | -6.13890 | -37.99795 | 5920 ft | 211 kts | 226° |
| 2026-04-23 20:12 | -6.14878 | -38.00908 | 5921 ft | 211 kts | 226° |
| 2026-04-23 20:12 | -6.15851 | -38.02003 | 5922 ft | 211 kts | 226° |
| 2026-04-23 20:12 | -6.16842 | -38.03119 | 5921 ft | 211 kts | 226° |
| 2026-04-23 20:13 | -6.17832 | -38.04233 | 5921 ft | 211 kts | 226° |
| 2026-04-23 20:13 | -6.18829 | -38.05356 | 5923 ft | 212 kts | 226° |
| 2026-04-23 20:13 | -6.19780 | -38.06426 | 5922 ft | 213 kts | 226° |
| 2026-04-23 20:13 | -6.20787 | -38.07560 | 5920 ft | 213 kts | 226° |
| 2026-04-23 20:14 | -6.21784 | -38.08683 | 5917 ft | 213 kts | 226° |
| 2026-04-23 20:14 | -6.22713 | -38.09729 | 5918 ft | 213 kts | 226° |
| 2026-04-23 20:14 | -6.23658 | -38.10793 | 5921 ft | 213 kts | 226° |
| 2026-04-23 20:14 | -6.24652 | -38.11912 | 5920 ft | 213 kts | 225° |
| 2026-04-23 20:15 | -6.25656 | -38.13044 | 5925 ft | 213 kts | 226° |
| 2026-04-23 20:15 | -6.26652 | -38.14165 | 5922 ft | 213 kts | 225° |
| 2026-04-23 20:15 | -6.27596 | -38.15229 | 5922 ft | 213 kts | 225° |
| 2026-04-23 20:15 | -6.28570 | -38.16325 | 5923 ft | 213 kts | 226° |
| 2026-04-23 20:16 | -6.29556 | -38.17435 | 5925 ft | 213 kts | 225° |
| 2026-04-23 20:16 | -6.30567 | -38.18576 | 5925 ft | 213 kts | 225° |
| 2026-04-23 20:16 | -6.31524 | -38.19655 | 5929 ft | 213 kts | 225° |
| 2026-04-23 20:16 | -6.32516 | -38.20771 | 5936 ft | 213 kts | 225° |
| 2026-04-23 20:17 | -6.33516 | -38.21898 | 5938 ft | 213 kts | 225° |
| 2026-04-23 20:17 | -6.34511 | -38.23020 | 5936 ft | 214 kts | 225° |
| 2026-04-23 20:17 | -6.35503 | -38.24138 | 5941 ft | 214 kts | 225° |
| 2026-04-23 20:17 | -6.36499 | -38.25259 | 5946 ft | 214 kts | 225° |
| 2026-04-23 20:18 | -6.37487 | -38.26373 | 5948 ft | 214 kts | 225° |
| 2026-04-23 20:18 | -6.38482 | -38.27496 | 5946 ft | 214 kts | 225° |
| 2026-04-23 20:18 | -6.39477 | -38.28616 | 5947 ft | 214 kts | 225° |
| 2026-04-23 20:18 | -6.40471 | -38.29737 | 5948 ft | 214 kts | 225° |
| 2026-04-23 20:19 | -6.41470 | -38.30864 | 5949 ft | 214 kts | 225° |
| 2026-04-23 20:19 | -6.42477 | -38.31998 | 5952 ft | 213 kts | 225° |
| 2026-04-23 20:19 | -6.43471 | -38.33119 | 5952 ft | 214 kts | 225° |
| 2026-04-23 20:19 | -6.44460 | -38.34236 | 5951 ft | 214 kts | 225° |
| 2026-04-23 20:20 | -6.45464 | -38.35366 | 5953 ft | 214 kts | 225° |
| 2026-04-23 20:20 | -6.46457 | -38.36486 | 5952 ft | 214 kts | 225° |
| 2026-04-23 20:20 | -6.47453 | -38.37610 | 5953 ft | 214 kts | 225° |
| 2026-04-23 20:20 | -6.48459 | -38.38744 | 5952 ft | 214 kts | 225° |
| 2026-04-23 20:21 | -6.49445 | -38.39858 | 5949 ft | 214 kts | 225° |
| 2026-04-23 20:21 | -6.50444 | -38.40983 | 5949 ft | 214 kts | 225° |
| 2026-04-23 20:21 | -6.51437 | -38.42104 | 5945 ft | 214 kts | 225° |
| 2026-04-23 20:21 | -6.52431 | -38.43226 | 5946 ft | 214 kts | 225° |
| 2026-04-23 20:22 | -6.53427 | -38.44349 | 5941 ft | 214 kts | 225° |
| 2026-04-23 20:22 | -6.54426 | -38.45477 | 5942 ft | 214 kts | 225° |
| 2026-04-23 20:22 | -6.55422 | -38.46600 | 5941 ft | 214 kts | 225° |
| 2026-04-23 20:22 | -6.56417 | -38.47723 | 5937 ft | 214 kts | 225° |
| 2026-04-23 20:23 | -6.57370 | -38.48862 | 5932 ft | 214 kts | 227° |
| 2026-04-23 20:23 | -6.58333 | -38.50030 | 5929 ft | 214 kts | 227° |
| 2026-04-23 20:23 | -6.59291 | -38.51189 | 5922 ft | 214 kts | 227° |
| 2026-04-23 20:23 | -6.60244 | -38.52345 | 5922 ft | 214 kts | 227° |
| 2026-04-23 20:24 | -6.61198 | -38.53500 | 5920 ft | 214 kts | 227° |
| 2026-04-23 20:24 | -6.62164 | -38.54671 | 5920 ft | 214 kts | 227° |
| 2026-04-23 20:24 | -6.63114 | -38.55822 | 5918 ft | 214 kts | 227° |
| 2026-04-23 20:24 | -6.64077 | -38.56989 | 5917 ft | 214 kts | 227° |
| 2026-04-23 20:25 | -6.65023 | -38.58134 | 5915 ft | 214 kts | 227° |
| 2026-04-23 20:25 | -6.65995 | -38.59314 | 5913 ft | 214 kts | 227° |
| 2026-04-23 20:25 | -6.66954 | -38.60476 | 5915 ft | 214 kts | 227° |
| 2026-04-23 20:25 | -6.67908 | -38.61633 | 5917 ft | 214 kts | 227° |
| 2026-04-23 20:26 | -6.68875 | -38.62805 | 5915 ft | 214 kts | 227° |
| 2026-04-23 20:26 | -6.69846 | -38.63982 | 5912 ft | 214 kts | 227° |
| 2026-04-23 20:26 | -6.70796 | -38.65134 | 5912 ft | 214 kts | 227° |
| 2026-04-23 20:26 | -6.71772 | -38.66318 | 5910 ft | 214 kts | 227° |
| 2026-04-23 20:27 | -6.72741 | -38.67492 | 5912 ft | 214 kts | 227° |
| 2026-04-23 20:27 | -6.73709 | -38.68666 | 5904 ft | 214 kts | 227° |
| 2026-04-23 20:27 | -6.74670 | -38.69831 | 5903 ft | 214 kts | 227° |
| 2026-04-23 20:27 | -6.75585 | -38.70941 | 5904 ft | 214 kts | 227° |
| 2026-04-23 20:28 | -6.76539 | -38.72099 | 5899 ft | 214 kts | 227° |
| 2026-04-23 20:28 | -6.77503 | -38.73268 | 5902 ft | 213 kts | 227° |
| 2026-04-23 20:28 | -6.78381 | -38.74333 | 5906 ft | 213 kts | 227° |
| 2026-04-23 20:28 | -6.79333 | -38.75488 | 5907 ft | 213 kts | 227° |
| 2026-04-23 20:29 | -6.80288 | -38.76647 | 5913 ft | 213 kts | 227° |
| 2026-04-23 20:29 | -6.81219 | -38.77776 | 5915 ft | 213 kts | 227° |
| 2026-04-23 20:29 | -6.82145 | -38.78899 | 5921 ft | 213 kts | 227° |
| 2026-04-23 20:29 | -6.83108 | -38.80068 | 5925 ft | 213 kts | 227° |
| 2026-04-23 20:30 | -6.84057 | -38.81221 | 5929 ft | 214 kts | 227° |
| 2026-04-23 20:30 | -6.85974 | -38.83547 | 5928 ft | 215 kts | 227° |
| 2026-04-23 20:30 | -6.86932 | -38.84709 | 5928 ft | 215 kts | 227° |
| 2026-04-23 20:31 | -6.87901 | -38.85886 | 5933 ft | 215 kts | 227° |
| 2026-04-23 20:31 | -6.88864 | -38.87055 | 5932 ft | 215 kts | 227° |
| 2026-04-23 20:31 | -6.89821 | -38.88217 | 5936 ft | 215 kts | 227° |
| 2026-04-23 20:31 | -6.90779 | -38.89382 | 5936 ft | 215 kts | 227° |
| 2026-04-23 20:32 | -6.91737 | -38.90552 | 5935 ft | 215 kts | 227° |
| 2026-04-23 20:32 | -6.92659 | -38.91678 | 5929 ft | 216 kts | 227° |
| 2026-04-23 20:32 | -6.93624 | -38.92851 | 5931 ft | 216 kts | 227° |
| 2026-04-23 20:32 | -6.94580 | -38.94013 | 5935 ft | 216 kts | 227° |
| 2026-04-23 20:33 | -6.95550 | -38.95192 | 5933 ft | 217 kts | 227° |
| 2026-04-23 20:33 | -6.96518 | -38.96368 | 5922 ft | 217 kts | 227° |
| 2026-04-23 20:33 | -6.97479 | -38.97535 | 5921 ft | 217 kts | 227° |
| 2026-04-23 20:33 | -6.98447 | -38.98711 | 5923 ft | 216 kts | 227° |
| 2026-04-23 20:34 | -6.99420 | -38.99894 | 5925 ft | 216 kts | 227° |
| 2026-04-23 20:34 | -7.00382 | -39.01062 | 5934 ft | 217 kts | 228° |
| 2026-04-23 20:34 | -7.01356 | -39.02246 | 5936 ft | 217 kts | 227° |
| 2026-04-23 20:34 | -7.02321 | -39.03419 | 5936 ft | 217 kts | 227° |
| 2026-04-23 20:35 | -7.03289 | -39.04595 | 5939 ft | 217 kts | 227° |
| 2026-04-23 20:35 | -7.04254 | -39.05768 | 5943 ft | 217 kts | 227° |
| 2026-04-23 20:35 | -7.05234 | -39.06961 | 5945 ft | 217 kts | 227° |
| 2026-04-23 20:35 | -7.06198 | -39.08132 | 5946 ft | 217 kts | 227° |
| 2026-04-23 20:36 | -7.07168 | -39.09311 | 5946 ft | 217 kts | 227° |
| 2026-04-23 20:36 | -7.08145 | -39.10498 | 5950 ft | 217 kts | 227° |
| 2026-04-23 20:36 | -7.09107 | -39.11669 | 5953 ft | 218 kts | 227° |
| 2026-04-23 20:36 | -7.10080 | -39.12851 | 5955 ft | 218 kts | 227° |
| 2026-04-23 20:37 | -7.10987 | -39.14136 | 5941 ft | 221 kts | 246° |
| 2026-04-23 20:37 | -7.11205 | -39.15631 | 5908 ft | 223 kts | 271° |
| 2026-04-23 20:37 | -7.11036 | -39.17231 | 5825 ft | 226 kts | 279° |
| 2026-04-23 20:37 | -7.10753 | -39.18787 | 5753 ft | 228 kts | 282° |
| 2026-04-23 20:38 | -7.10422 | -39.20388 | 5654 ft | 230 kts | 282° |
| 2026-04-23 20:38 | -7.10086 | -39.21954 | 5560 ft | 231 kts | 282° |
| 2026-04-23 20:38 | -7.09743 | -39.23538 | 5490 ft | 231 kts | 282° |
| 2026-04-23 20:38 | -7.09408 | -39.25066 | 5410 ft | 216 kts | 282° |
| 2026-04-23 20:39 | -7.09089 | -39.26526 | 5283 ft | 208 kts | 282° |
| 2026-04-23 20:39 | -7.08780 | -39.27940 | 5146 ft | 203 kts | 282° |
| 2026-04-23 20:39 | -7.08479 | -39.29318 | 5001 ft | 200 kts | 282° |
| 2026-04-23 20:39 | -7.08177 | -39.30699 | 4854 ft | 198 kts | 282° |
| 2026-04-23 20:40 | -7.07881 | -39.32056 | 4706 ft | 197 kts | 282° |
| 2026-04-23 20:40 | -7.07584 | -39.33412 | 4557 ft | 196 kts | 281° |
| 2026-04-23 20:40 | -7.07293 | -39.34747 | 4410 ft | 195 kts | 281° |
| 2026-04-23 20:40 | -7.06997 | -39.36097 | 4259 ft | 195 kts | 281° |
| 2026-04-23 20:41 | -7.06705 | -39.37437 | 4107 ft | 195 kts | 281° |
| 2026-04-23 20:41 | -7.06412 | -39.38777 | 3957 ft | 195 kts | 281° |
| 2026-04-23 20:41 | -7.06121 | -39.40105 | 3823 ft | 195 kts | 280° |
| 2026-04-23 20:41 | -7.05828 | -39.41446 | 3698 ft | 195 kts | 280° |
| 2026-04-23 20:42 | -7.05545 | -39.42786 | 3533 ft | 196 kts | 275° |
| 2026-04-23 20:42 | -7.05827 | -39.44087 | 3298 ft | 188 kts | 230° |
| 2026-04-23 20:42 | -7.06844 | -39.44785 | 3108 ft | 175 kts | 188° |
| 2026-04-23 20:42 | -7.08060 | -39.44899 | 2946 ft | 172 kts | 178° |
| 2026-04-23 20:43 | -7.09265 | -39.44940 | 2786 ft | 172 kts | 178° |
| 2026-04-23 20:43 | -7.10466 | -39.44965 | 2674 ft | 170 kts | 177° |
| 2026-04-23 20:43 | -7.11661 | -39.44984 | 2541 ft | 170 kts | 178° |
| 2026-04-23 20:43 | -7.12855 | -39.45000 | 2396 ft | 170 kts | 177° |
| 2026-04-23 20:44 | -7.14022 | -39.45010 | 2377 ft | 162 kts | 175° |
| 2026-04-23 20:44 | -7.14895 | -39.44629 | 2687 ft | 123 kts | 128° |
| 2026-04-23 20:44 | -7.15077 | -39.43753 | 2656 ft | 148 kts | 91° |
| 2026-04-23 20:44 | -7.15266 | -39.42669 | 2381 ft | 160 kts | 114° |
| 2026-04-23 20:45 | -7.15971 | -39.41894 | 2379 ft | 152 kts | 149° |
| 2026-04-23 20:45 | -7.16718 | -39.41276 | 2563 ft | 130 kts | 117° |
| 2026-04-23 20:45 | -7.17001 | -39.40407 | 2520 ft | 131 kts | 105° |
| 2026-04-23 20:45 | -7.17262 | -39.39552 | 2459 ft | 122 kts | 108° |
| 2026-04-23 20:46 | -7.17527 | -39.38744 | 2365 ft | 118 kts | 108° |
| 2026-04-23 20:46 | -7.17791 | -39.37957 | 2350 ft | 120 kts | 109° |
| 2026-04-23 20:46 | -7.18078 | -39.37148 | 2290 ft | 123 kts | 109° |
| 2026-04-23 20:46 | -7.18381 | -39.36325 | 2207 ft | 127 kts | 110° |
| 2026-04-23 20:47 | -7.18694 | -39.35488 | 2166 ft | 125 kts | 110° |
| 2026-04-23 20:47 | -7.18997 | -39.34676 | 2192 ft | 122 kts | 110° |
| 2026-04-23 20:47 | -7.19302 | -39.33861 | 2202 ft | 124 kts | 110° |
| 2026-04-23 20:47 | -7.19608 | -39.33045 | 2210 ft | 124 kts | 110° |
| 2026-04-23 20:48 | -7.19919 | -39.32219 | 2196 ft | 124 kts | 110° |
| 2026-04-23 20:48 | -7.20226 | -39.31404 | 2109 ft | 127 kts | 111° |
| 2026-04-23 20:48 | -7.20548 | -39.30595 | 1922 ft | 122 kts | 110° |
| 2026-04-23 20:48 | -7.20849 | -39.29788 | 1772 ft | 120 kts | 108° |
| 2026-04-23 20:49 | -7.21132 | -39.29020 | 1636 ft | 116 kts | 107° |
| 2026-04-23 20:49 | -7.21429 | -39.28229 | 1483 ft | 121 kts | 111° |
| 2026-04-23 20:49 | -7.21723 | -39.27451 | 1363 ft | 114 kts | 108° |
| 2026-04-23 20:49 | -7.21952 | -39.26831 | 1355 ft | 61 kts | 114° |
| 2026-04-23 20:50 | -7.22083 | -39.26526 | 1345 ft | 39 kts | 105° |
| 2026-04-23 20:50 | -7.22155 | -39.26308 | 1335 ft | 21 kts | 109° |
| 2026-04-23 20:50 | -7.22190 | -39.26171 | 1329 ft | 16 kts | 110° |
| 2026-04-23 20:50 | -7.22193 | -39.26217 | 1331 ft | 16 kts | 297° |
| 2026-04-23 20:51 | -7.22142 | -39.26342 | 1337 ft | 21 kts | 291° |
| 2026-04-23 20:51 | -7.22084 | -39.26497 | 1344 ft | 25 kts | 290° |
| 2026-04-23 20:51 | -7.22017 | -39.26673 | 1350 ft | 28 kts | 290° |
| 2026-04-23 20:51 | -7.21943 | -39.26871 | 1355 ft | 31 kts | 291° |
| 2026-04-23 20:52 | -7.21866 | -39.27066 | 1358 ft | 16 kts | 287° |
| 2026-04-23 20:52 | -7.21800 | -39.27144 | 1359 ft | 17 kts | 340° |
| 2026-04-23 20:52 | -7.21694 | -39.27191 | 1359 ft | 17 kts | 336° |
| 2026-04-23 20:52 | -7.21641 | -39.27194 | 1359 ft | 5 kts | 59° |
| 2026-04-23 20:53 | -7.21604 | -39.27166 | 1359 ft | 4 kts | 20° |
| 2026-04-23 20:53 | -7.21594 | -39.27162 | 1359 ft | 0 kts | 20° |